sensor_id;sensor_type;location;lat;lon;timestamp;P1;durP1;ratioP1;P2;durP2;ratioP2
11835;SDS011;5977;51.972;7.640;2022-10-16T00:02:24;139.97;;;48.27;;
11835;SDS011;5977;51.972;7.640;2022-10-16T00:04:52;139.50;;;48.23;;
11835;SDS011;5977;51.972;7.640;2022-10-16T00:07:20;139.43;;;48.20;;
11835;SDS011;5977;51.972;7.640;2022-10-16T00:09:49;139.30;;;48.10;;
11835;SDS011;5977;51.972;7.640;2022-10-16T00:12:18;138.80;;;47.97;;
11835;SDS011;5977;51.972;7.640;2022-10-16T00:14:46;138.13;;;47.60;;
11835;SDS011;5977;51.972;7.640;2022-10-16T00:17:14;138.97;;;48.17;;
11835;SDS011;5977;51.972;7.640;2022-10-16T00:19:41;138.60;;;47.97;;
11835;SDS011;5977;51.972;7.640;2022-10-16T00:22:09;138.60;;;48.07;;
11835;SDS011;5977;51.972;7.640;2022-10-16T00:24:37;138.93;;;48.03;;
11835;SDS011;5977;51.972;7.640;2022-10-16T00:27:05;138.07;;;47.77;;
11835;SDS011;5977;51.972;7.640;2022-10-16T00:29:34;138.60;;;48.00;;
11835;SDS011;5977;51.972;7.640;2022-10-16T00:32:02;138.30;;;48.03;;
11835;SDS011;5977;51.972;7.640;2022-10-16T00:34:30;138.17;;;47.97;;
11835;SDS011;5977;51.972;7.640;2022-10-16T00:36:58;137.37;;;47.73;;
11835;SDS011;5977;51.972;7.640;2022-10-16T00:39:26;138.27;;;48.03;;
11835;SDS011;5977;51.972;7.640;2022-10-16T00:41:54;138.40;;;48.17;;
11835;SDS011;5977;51.972;7.640;2022-10-16T00:44:43;137.97;;;47.93;;
11835;SDS011;5977;51.972;7.640;2022-10-16T00:47:15;138.00;;;47.80;;
11835;SDS011;5977;51.972;7.640;2022-10-16T00:49:47;137.90;;;47.77;;
11835;SDS011;5977;51.972;7.640;2022-10-16T00:52:17;137.87;;;47.73;;
11835;SDS011;5977;51.972;7.640;2022-10-16T00:54:46;137.27;;;47.40;;
11835;SDS011;5977;51.972;7.640;2022-10-16T00:57:16;138.40;;;48.00;;
11835;SDS011;5977;51.972;7.640;2022-10-16T00:59:45;138.13;;;47.90;;
11835;SDS011;5977;51.972;7.640;2022-10-16T01:02:14;138.10;;;47.97;;
11835;SDS011;5977;51.972;7.640;2022-10-16T01:04:43;137.77;;;47.77;;
11835;SDS011;5977;51.972;7.640;2022-10-16T01:07:16;137.83;;;47.73;;
11835;SDS011;5977;51.972;7.640;2022-10-16T01:09:54;137.43;;;47.37;;
11835;SDS011;5977;51.972;7.640;2022-10-16T01:12:36;137.93;;;47.70;;
11835;SDS011;5977;51.972;7.640;2022-10-16T01:15:16;138.07;;;47.67;;
11835;SDS011;5977;51.972;7.640;2022-10-16T01:17:51;137.73;;;47.73;;
11835;SDS011;5977;51.972;7.640;2022-10-16T01:20:24;138.20;;;47.97;;
11835;SDS011;5977;51.972;7.640;2022-10-16T01:22:59;138.93;;;48.20;;
11835;SDS011;5977;51.972;7.640;2022-10-16T01:25:44;138.17;;;47.90;;
11835;SDS011;5977;51.972;7.640;2022-10-16T01:28:24;137.77;;;47.50;;
11835;SDS011;5977;51.972;7.640;2022-10-16T01:30:56;138.37;;;47.97;;
11835;SDS011;5977;51.972;7.640;2022-10-16T01:33:28;138.20;;;47.87;;
11835;SDS011;5977;51.972;7.640;2022-10-16T01:36:01;138.53;;;48.20;;
11835;SDS011;5977;51.972;7.640;2022-10-16T01:38:34;137.70;;;47.63;;
11835;SDS011;5977;51.972;7.640;2022-10-16T01:41:06;137.70;;;47.67;;
11835;SDS011;5977;51.972;7.640;2022-10-16T01:43:39;137.87;;;47.77;;
11835;SDS011;5977;51.972;7.640;2022-10-16T01:46:10;137.83;;;47.73;;
11835;SDS011;5977;51.972;7.640;2022-10-16T01:48:39;138.43;;;48.03;;
11835;SDS011;5977;51.972;7.640;2022-10-16T01:51:09;137.73;;;47.57;;
11835;SDS011;5977;51.972;7.640;2022-10-16T01:53:39;137.10;;;47.30;;
11835;SDS011;5977;51.972;7.640;2022-10-16T01:56:09;137.67;;;47.70;;
11835;SDS011;5977;51.972;7.640;2022-10-16T01:58:42;138.27;;;47.90;;
11835;SDS011;5977;51.972;7.640;2022-10-16T02:01:15;138.10;;;47.80;;
11835;SDS011;5977;51.972;7.640;2022-10-16T02:03:45;138.13;;;47.80;;
11835;SDS011;5977;51.972;7.640;2022-10-16T02:06:15;137.70;;;47.57;;
11835;SDS011;5977;51.972;7.640;2022-10-16T02:08:43;137.83;;;47.70;;
11835;SDS011;5977;51.972;7.640;2022-10-16T02:11:11;137.83;;;47.60;;
11835;SDS011;5977;51.972;7.640;2022-10-16T02:13:40;137.70;;;47.47;;
11835;SDS011;5977;51.972;7.640;2022-10-16T02:16:12;138.00;;;47.77;;
11835;SDS011;5977;51.972;7.640;2022-10-16T02:18:41;137.77;;;47.70;;
11835;SDS011;5977;51.972;7.640;2022-10-16T02:21:11;137.80;;;47.53;;
11835;SDS011;5977;51.972;7.640;2022-10-16T02:23:45;137.60;;;47.50;;
11835;SDS011;5977;51.972;7.640;2022-10-16T02:26:19;138.43;;;47.80;;
11835;SDS011;5977;51.972;7.640;2022-10-16T02:28:56;138.03;;;47.63;;
11835;SDS011;5977;51.972;7.640;2022-10-16T02:31:31;138.07;;;47.90;;
11835;SDS011;5977;51.972;7.640;2022-10-16T02:34:02;137.67;;;47.57;;
11835;SDS011;5977;51.972;7.640;2022-10-16T02:36:33;137.83;;;47.67;;
11835;SDS011;5977;51.972;7.640;2022-10-16T02:39:02;137.60;;;47.57;;
11835;SDS011;5977;51.972;7.640;2022-10-16T02:41:31;138.30;;;47.67;;
11835;SDS011;5977;51.972;7.640;2022-10-16T02:44:01;138.47;;;47.97;;
11835;SDS011;5977;51.972;7.640;2022-10-16T02:46:29;137.97;;;47.67;;
11835;SDS011;5977;51.972;7.640;2022-10-16T02:48:57;138.23;;;47.83;;
11835;SDS011;5977;51.972;7.640;2022-10-16T02:51:24;138.47;;;47.97;;
11835;SDS011;5977;51.972;7.640;2022-10-16T02:53:52;138.20;;;47.80;;
11835;SDS011;5977;51.972;7.640;2022-10-16T02:56:20;138.53;;;47.90;;
11835;SDS011;5977;51.972;7.640;2022-10-16T02:58:48;138.13;;;47.67;;
11835;SDS011;5977;51.972;7.640;2022-10-16T03:01:17;138.33;;;47.90;;
11835;SDS011;5977;51.972;7.640;2022-10-16T03:03:45;138.07;;;47.70;;
11835;SDS011;5977;51.972;7.640;2022-10-16T03:06:13;137.37;;;47.37;;
11835;SDS011;5977;51.972;7.640;2022-10-16T03:08:41;138.43;;;47.73;;
11835;SDS011;5977;51.972;7.640;2022-10-16T03:11:09;138.43;;;47.97;;
11835;SDS011;5977;51.972;7.640;2022-10-16T03:13:37;138.00;;;47.33;;
11835;SDS011;5977;51.972;7.640;2022-10-16T03:16:04;137.07;;;47.27;;
11835;SDS011;5977;51.972;7.640;2022-10-16T03:18:33;138.33;;;47.87;;
11835;SDS011;5977;51.972;7.640;2022-10-16T03:21:01;138.33;;;47.67;;
11835;SDS011;5977;51.972;7.640;2022-10-16T03:23:29;140.60;;;48.20;;
11835;SDS011;5977;51.972;7.640;2022-10-16T03:25:57;138.83;;;47.80;;
11835;SDS011;5977;51.972;7.640;2022-10-16T03:28:25;139.73;;;48.27;;
11835;SDS011;5977;51.972;7.640;2022-10-16T03:30:53;138.57;;;47.97;;
11835;SDS011;5977;51.972;7.640;2022-10-16T03:33:20;138.37;;;47.83;;
11835;SDS011;5977;51.972;7.640;2022-10-16T03:35:53;137.57;;;47.60;;
11835;SDS011;5977;51.972;7.640;2022-10-16T03:38:21;137.97;;;47.57;;
11835;SDS011;5977;51.972;7.640;2022-10-16T03:40:49;138.77;;;47.87;;
11835;SDS011;5977;51.972;7.640;2022-10-16T03:43:17;138.33;;;47.73;;
11835;SDS011;5977;51.972;7.640;2022-10-16T03:45:45;138.00;;;47.57;;
11835;SDS011;5977;51.972;7.640;2022-10-16T03:48:13;138.20;;;47.77;;
11835;SDS011;5977;51.972;7.640;2022-10-16T03:50:40;138.27;;;47.87;;
11835;SDS011;5977;51.972;7.640;2022-10-16T03:53:10;137.90;;;47.60;;
11835;SDS011;5977;51.972;7.640;2022-10-16T03:55:37;137.97;;;47.77;;
11835;SDS011;5977;51.972;7.640;2022-10-16T03:58:05;138.13;;;47.67;;
11835;SDS011;5977;51.972;7.640;2022-10-16T04:00:33;138.00;;;47.80;;
11835;SDS011;5977;51.972;7.640;2022-10-16T04:03:01;137.97;;;47.70;;
11835;SDS011;5977;51.972;7.640;2022-10-16T04:05:29;138.30;;;47.97;;
11835;SDS011;5977;51.972;7.640;2022-10-16T04:07:57;137.93;;;47.67;;
11835;SDS011;5977;51.972;7.640;2022-10-16T04:10:26;137.93;;;47.67;;
11835;SDS011;5977;51.972;7.640;2022-10-16T04:12:54;137.47;;;47.50;;
11835;SDS011;5977;51.972;7.640;2022-10-16T04:15:22;137.60;;;47.80;;
11835;SDS011;5977;51.972;7.640;2022-10-16T04:17:50;137.80;;;47.80;;
11835;SDS011;5977;51.972;7.640;2022-10-16T04:20:19;136.80;;;47.23;;
11835;SDS011;5977;51.972;7.640;2022-10-16T04:22:46;137.87;;;47.57;;
11835;SDS011;5977;51.972;7.640;2022-10-16T04:25:14;137.40;;;47.47;;
11835;SDS011;5977;51.972;7.640;2022-10-16T04:27:44;137.50;;;47.37;;
11835;SDS011;5977;51.972;7.640;2022-10-16T04:30:11;137.47;;;47.53;;
11835;SDS011;5977;51.972;7.640;2022-10-16T04:32:39;137.93;;;47.67;;
11835;SDS011;5977;51.972;7.640;2022-10-16T04:35:08;138.10;;;47.77;;
11835;SDS011;5977;51.972;7.640;2022-10-16T04:37:36;138.73;;;48.23;;
11835;SDS011;5977;51.972;7.640;2022-10-16T04:40:04;137.57;;;47.67;;
11835;SDS011;5977;51.972;7.640;2022-10-16T04:42:32;138.03;;;47.73;;
11835;SDS011;5977;51.972;7.640;2022-10-16T04:45:01;137.47;;;47.57;;
11835;SDS011;5977;51.972;7.640;2022-10-16T04:47:29;137.37;;;47.70;;
11835;SDS011;5977;51.972;7.640;2022-10-16T04:49:57;138.43;;;47.97;;
11835;SDS011;5977;51.972;7.640;2022-10-16T04:52:28;137.53;;;47.63;;
11835;SDS011;5977;51.972;7.640;2022-10-16T04:54:57;137.30;;;47.23;;
11835;SDS011;5977;51.972;7.640;2022-10-16T04:57:28;138.77;;;47.87;;
11835;SDS011;5977;51.972;7.640;2022-10-16T04:59:56;140.20;;;48.27;;
11835;SDS011;5977;51.972;7.640;2022-10-16T05:02:25;139.53;;;47.80;;
11835;SDS011;5977;51.972;7.640;2022-10-16T05:04:53;139.20;;;47.80;;
11835;SDS011;5977;51.972;7.640;2022-10-16T05:07:21;138.30;;;47.73;;
11835;SDS011;5977;51.972;7.640;2022-10-16T05:09:49;138.07;;;47.83;;
11835;SDS011;5977;51.972;7.640;2022-10-16T05:12:17;138.27;;;47.90;;
11835;SDS011;5977;51.972;7.640;2022-10-16T05:14:45;138.40;;;47.90;;
11835;SDS011;5977;51.972;7.640;2022-10-16T05:17:13;137.57;;;47.43;;
11835;SDS011;5977;51.972;7.640;2022-10-16T05:19:42;138.07;;;47.77;;
11835;SDS011;5977;51.972;7.640;2022-10-16T05:22:10;138.43;;;47.83;;
11835;SDS011;5977;51.972;7.640;2022-10-16T05:24:38;137.63;;;47.70;;
11835;SDS011;5977;51.972;7.640;2022-10-16T05:27:06;136.13;;;46.80;;
11835;SDS011;5977;51.972;7.640;2022-10-16T05:29:33;138.13;;;47.83;;
11835;SDS011;5977;51.972;7.640;2022-10-16T05:32:01;137.83;;;47.60;;
11835;SDS011;5977;51.972;7.640;2022-10-16T05:34:29;137.90;;;47.63;;
11835;SDS011;5977;51.972;7.640;2022-10-16T05:36:58;137.63;;;47.53;;
11835;SDS011;5977;51.972;7.640;2022-10-16T05:39:26;136.50;;;46.73;;
11835;SDS011;5977;51.972;7.640;2022-10-16T05:41:54;136.67;;;47.10;;
11835;SDS011;5977;51.972;7.640;2022-10-16T05:44:22;136.53;;;46.80;;
11835;SDS011;5977;51.972;7.640;2022-10-16T05:46:49;138.90;;;47.40;;
11835;SDS011;5977;51.972;7.640;2022-10-16T05:49:17;141.47;;;47.83;;
11835;SDS011;5977;51.972;7.640;2022-10-16T05:51:45;136.67;;;47.03;;
11835;SDS011;5977;51.972;7.640;2022-10-16T05:54:14;136.53;;;47.20;;
11835;SDS011;5977;51.972;7.640;2022-10-16T05:56:42;136.53;;;47.10;;
11835;SDS011;5977;51.972;7.640;2022-10-16T05:59:10;136.47;;;47.03;;
11835;SDS011;5977;51.972;7.640;2022-10-16T06:01:38;136.63;;;47.40;;
11835;SDS011;5977;51.972;7.640;2022-10-16T06:04:06;136.70;;;47.33;;
11835;SDS011;5977;51.972;7.640;2022-10-16T06:06:40;136.63;;;47.20;;
11835;SDS011;5977;51.972;7.640;2022-10-16T06:09:09;136.10;;;46.93;;
11835;SDS011;5977;51.972;7.640;2022-10-16T06:11:38;136.07;;;46.90;;
11835;SDS011;5977;51.972;7.640;2022-10-16T06:14:07;136.23;;;46.97;;
11835;SDS011;5977;51.972;7.640;2022-10-16T06:16:36;136.83;;;47.30;;
11835;SDS011;5977;51.972;7.640;2022-10-16T06:19:05;136.40;;;47.13;;
11835;SDS011;5977;51.972;7.640;2022-10-16T06:21:34;136.13;;;46.97;;
11835;SDS011;5977;51.972;7.640;2022-10-16T06:24:02;135.47;;;46.80;;
11835;SDS011;5977;51.972;7.640;2022-10-16T06:26:30;135.87;;;46.80;;
11835;SDS011;5977;51.972;7.640;2022-10-16T06:29:00;135.73;;;46.70;;
11835;SDS011;5977;51.972;7.640;2022-10-16T06:31:28;135.93;;;46.93;;
11835;SDS011;5977;51.972;7.640;2022-10-16T06:33:57;135.60;;;46.83;;
11835;SDS011;5977;51.972;7.640;2022-10-16T06:36:26;136.30;;;47.07;;
11835;SDS011;5977;51.972;7.640;2022-10-16T06:38:54;136.17;;;47.10;;
11835;SDS011;5977;51.972;7.640;2022-10-16T06:41:22;135.73;;;46.83;;
11835;SDS011;5977;51.972;7.640;2022-10-16T06:43:50;136.43;;;47.07;;
11835;SDS011;5977;51.972;7.640;2022-10-16T06:46:20;136.13;;;46.93;;
11835;SDS011;5977;51.972;7.640;2022-10-16T06:48:49;136.33;;;47.13;;
11835;SDS011;5977;51.972;7.640;2022-10-16T06:51:18;136.30;;;47.20;;
11835;SDS011;5977;51.972;7.640;2022-10-16T06:53:47;135.90;;;46.93;;
11835;SDS011;5977;51.972;7.640;2022-10-16T06:56:32;135.50;;;46.60;;
11835;SDS011;5977;51.972;7.640;2022-10-16T06:59:00;136.70;;;47.23;;
11835;SDS011;5977;51.972;7.640;2022-10-16T07:01:30;135.93;;;47.03;;
11835;SDS011;5977;51.972;7.640;2022-10-16T07:03:58;136.23;;;47.13;;
11835;SDS011;5977;51.972;7.640;2022-10-16T07:06:30;135.47;;;46.63;;
11835;SDS011;5977;51.972;7.640;2022-10-16T07:09:00;135.73;;;46.97;;
11835;SDS011;5977;51.972;7.640;2022-10-16T07:11:30;136.03;;;46.90;;
11835;SDS011;5977;51.972;7.640;2022-10-16T07:13:58;135.80;;;46.93;;
11835;SDS011;5977;51.972;7.640;2022-10-16T07:16:27;136.73;;;47.37;;
11835;SDS011;5977;51.972;7.640;2022-10-16T07:18:58;136.03;;;47.00;;
11835;SDS011;5977;51.972;7.640;2022-10-16T07:21:27;136.57;;;47.60;;
11835;SDS011;5977;51.972;7.640;2022-10-16T07:23:57;136.03;;;47.10;;
11835;SDS011;5977;51.972;7.640;2022-10-16T07:26:27;135.93;;;46.93;;
11835;SDS011;5977;51.972;7.640;2022-10-16T07:28:56;135.83;;;47.00;;
11835;SDS011;5977;51.972;7.640;2022-10-16T07:31:24;136.13;;;47.20;;
11835;SDS011;5977;51.972;7.640;2022-10-16T07:33:52;136.37;;;47.30;;
11835;SDS011;5977;51.972;7.640;2022-10-16T07:36:22;136.07;;;47.57;;
11835;SDS011;5977;51.972;7.640;2022-10-16T07:38:50;135.67;;;47.13;;
11835;SDS011;5977;51.972;7.640;2022-10-16T07:41:23;136.80;;;47.67;;
11835;SDS011;5977;51.972;7.640;2022-10-16T07:43:52;136.73;;;47.73;;
11835;SDS011;5977;51.972;7.640;2022-10-16T07:46:21;136.97;;;47.70;;
11835;SDS011;5977;51.972;7.640;2022-10-16T07:48:50;137.30;;;47.90;;
11835;SDS011;5977;51.972;7.640;2022-10-16T07:51:18;138.60;;;48.33;;
11835;SDS011;5977;51.972;7.640;2022-10-16T07:53:51;139.23;;;48.63;;
11835;SDS011;5977;51.972;7.640;2022-10-16T07:56:20;139.27;;;48.70;;
11835;SDS011;5977;51.972;7.640;2022-10-16T07:58:48;139.23;;;48.53;;
11835;SDS011;5977;51.972;7.640;2022-10-16T08:09:40;139.50;;;48.83;;
11835;SDS011;5977;51.972;7.640;2022-10-16T08:12:08;139.37;;;48.60;;
11835;SDS011;5977;51.972;7.640;2022-10-16T08:14:37;140.67;;;49.43;;
11835;SDS011;5977;51.972;7.640;2022-10-16T08:17:06;140.80;;;49.60;;
11835;SDS011;5977;51.972;7.640;2022-10-16T08:19:34;141.10;;;49.57;;
11835;SDS011;5977;51.972;7.640;2022-10-16T08:22:02;140.20;;;49.20;;
11835;SDS011;5977;51.972;7.640;2022-10-16T08:24:30;141.33;;;50.07;;
11835;SDS011;5977;51.972;7.640;2022-10-16T08:26:59;140.83;;;49.57;;
11835;SDS011;5977;51.972;7.640;2022-10-16T08:29:27;140.70;;;49.57;;
11835;SDS011;5977;51.972;7.640;2022-10-16T08:31:55;141.80;;;49.97;;
11835;SDS011;5977;51.972;7.640;2022-10-16T08:34:23;141.27;;;49.77;;
11835;SDS011;5977;51.972;7.640;2022-10-16T08:36:52;141.47;;;49.90;;
11835;SDS011;5977;51.972;7.640;2022-10-16T08:39:20;141.10;;;49.50;;
11835;SDS011;5977;51.972;7.640;2022-10-16T08:42:03;141.57;;;49.63;;
11835;SDS011;5977;51.972;7.640;2022-10-16T08:44:49;142.03;;;50.20;;
11835;SDS011;5977;51.972;7.640;2022-10-16T08:47:33;141.57;;;49.70;;
11835;SDS011;5977;51.972;7.640;2022-10-16T08:50:11;142.03;;;49.90;;
11835;SDS011;5977;51.972;7.640;2022-10-16T08:52:41;141.77;;;49.80;;
11835;SDS011;5977;51.972;7.640;2022-10-16T08:55:16;141.73;;;49.90;;
11835;SDS011;5977;51.972;7.640;2022-10-16T08:57:57;141.90;;;49.73;;
11835;SDS011;5977;51.972;7.640;2022-10-16T09:00:24;141.80;;;49.63;;
11835;SDS011;5977;51.972;7.640;2022-10-16T09:02:56;142.13;;;50.40;;
11835;SDS011;5977;51.972;7.640;2022-10-16T09:05:40;141.73;;;49.83;;
11835;SDS011;5977;51.972;7.640;2022-10-16T09:08:27;141.50;;;49.63;;
11835;SDS011;5977;51.972;7.640;2022-10-16T09:11:06;141.80;;;49.77;;
11835;SDS011;5977;51.972;7.640;2022-10-16T09:13:46;141.90;;;49.70;;
11835;SDS011;5977;51.972;7.640;2022-10-16T09:16:19;141.47;;;49.47;;
11835;SDS011;5977;51.972;7.640;2022-10-16T09:18:54;141.67;;;49.67;;
11835;SDS011;5977;51.972;7.640;2022-10-16T09:21:28;141.17;;;49.50;;
11835;SDS011;5977;51.972;7.640;2022-10-16T09:23:58;141.07;;;49.13;;
11835;SDS011;5977;51.972;7.640;2022-10-16T09:26:34;141.97;;;49.63;;
11835;SDS011;5977;51.972;7.640;2022-10-16T09:29:03;142.00;;;49.60;;
11835;SDS011;5977;51.972;7.640;2022-10-16T09:31:31;141.50;;;49.60;;
11835;SDS011;5977;51.972;7.640;2022-10-16T09:34:03;141.93;;;49.77;;
11835;SDS011;5977;51.972;7.640;2022-10-16T09:36:34;141.13;;;49.27;;
11835;SDS011;5977;51.972;7.640;2022-10-16T09:39:08;141.23;;;49.33;;
11835;SDS011;5977;51.972;7.640;2022-10-16T09:41:38;141.40;;;49.40;;
11835;SDS011;5977;51.972;7.640;2022-10-16T09:44:16;141.17;;;49.40;;
11835;SDS011;5977;51.972;7.640;2022-10-16T09:46:48;141.17;;;49.07;;
11835;SDS011;5977;51.972;7.640;2022-10-16T09:49:19;140.63;;;48.80;;
11835;SDS011;5977;51.972;7.640;2022-10-16T09:51:49;141.23;;;49.23;;
11835;SDS011;5977;51.972;7.640;2022-10-16T09:54:18;141.27;;;49.43;;
11835;SDS011;5977;51.972;7.640;2022-10-16T09:56:47;141.27;;;49.23;;
11835;SDS011;5977;51.972;7.640;2022-10-16T09:59:20;141.20;;;49.07;;
11835;SDS011;5977;51.972;7.640;2022-10-16T10:01:50;141.20;;;49.27;;
11835;SDS011;5977;51.972;7.640;2022-10-16T10:04:22;141.53;;;49.47;;
11835;SDS011;5977;51.972;7.640;2022-10-16T10:06:52;141.60;;;49.80;;
11835;SDS011;5977;51.972;7.640;2022-10-16T10:09:22;142.13;;;49.80;;
11835;SDS011;5977;51.972;7.640;2022-10-16T10:11:53;141.87;;;49.77;;
11835;SDS011;5977;51.972;7.640;2022-10-16T10:14:25;142.20;;;50.07;;
11835;SDS011;5977;51.972;7.640;2022-10-16T10:19:47;141.90;;;49.73;;
11835;SDS011;5977;51.972;7.640;2022-10-16T10:22:22;141.73;;;49.57;;
11835;SDS011;5977;51.972;7.640;2022-10-16T10:25:00;141.30;;;49.47;;
11835;SDS011;5977;51.972;7.640;2022-10-16T10:28:15;142.13;;;49.87;;
11835;SDS011;5977;51.972;7.640;2022-10-16T10:30:52;142.63;;;50.07;;
11835;SDS011;5977;51.972;7.640;2022-10-16T10:33:28;142.47;;;49.93;;
11835;SDS011;5977;51.972;7.640;2022-10-16T10:36:11;142.50;;;49.90;;
11835;SDS011;5977;51.972;7.640;2022-10-16T10:38:48;142.37;;;50.07;;
11835;SDS011;5977;51.972;7.640;2022-10-16T10:41:26;142.87;;;50.27;;
11835;SDS011;5977;51.972;7.640;2022-10-16T10:44:11;142.23;;;49.87;;
11835;SDS011;5977;51.972;7.640;2022-10-16T10:46:50;142.93;;;50.30;;
11835;SDS011;5977;51.972;7.640;2022-10-16T10:49:25;142.77;;;50.30;;
11835;SDS011;5977;51.972;7.640;2022-10-16T10:52:13;142.57;;;50.27;;
11835;SDS011;5977;51.972;7.640;2022-10-16T10:54:59;142.43;;;49.83;;
11835;SDS011;5977;51.972;7.640;2022-10-16T10:57:37;142.43;;;49.83;;
11835;SDS011;5977;51.972;7.640;2022-10-16T11:00:16;142.27;;;49.73;;
11835;SDS011;5977;51.972;7.640;2022-10-16T11:02:52;142.37;;;50.07;;
11835;SDS011;5977;51.972;7.640;2022-10-16T11:05:40;142.43;;;50.23;;
11835;SDS011;5977;51.972;7.640;2022-10-16T11:08:11;142.03;;;49.60;;
11835;SDS011;5977;51.972;7.640;2022-10-16T11:10:45;142.90;;;50.37;;
11835;SDS011;5977;51.972;7.640;2022-10-16T11:13:24;142.67;;;50.03;;
11835;SDS011;5977;51.972;7.640;2022-10-16T11:15:58;142.10;;;49.57;;
11835;SDS011;5977;51.972;7.640;2022-10-16T11:18:32;143.23;;;50.43;;
11835;SDS011;5977;51.972;7.640;2022-10-16T11:21:08;142.17;;;49.70;;
11835;SDS011;5977;51.972;7.640;2022-10-16T11:23:40;141.53;;;49.47;;
11835;SDS011;5977;51.972;7.640;2022-10-16T11:26:16;142.77;;;50.27;;
11835;SDS011;5977;51.972;7.640;2022-10-16T11:28:47;142.17;;;49.83;;
11835;SDS011;5977;51.972;7.640;2022-10-16T11:31:17;142.47;;;50.03;;
11835;SDS011;5977;51.972;7.640;2022-10-16T11:33:53;142.73;;;49.97;;
11835;SDS011;5977;51.972;7.640;2022-10-16T11:36:32;142.70;;;50.07;;
11835;SDS011;5977;51.972;7.640;2022-10-16T11:39:04;142.47;;;49.80;;
11835;SDS011;5977;51.972;7.640;2022-10-16T11:41:42;142.17;;;49.83;;
11835;SDS011;5977;51.972;7.640;2022-10-16T11:44:18;142.33;;;49.87;;
11835;SDS011;5977;51.972;7.640;2022-10-16T11:46:58;142.93;;;50.23;;
11835;SDS011;5977;51.972;7.640;2022-10-16T11:49:57;142.77;;;49.87;;
11835;SDS011;5977;51.972;7.640;2022-10-16T11:52:29;142.13;;;49.33;;
11835;SDS011;5977;51.972;7.640;2022-10-16T11:55:04;142.33;;;49.83;;
11835;SDS011;5977;51.972;7.640;2022-10-16T11:57:40;142.50;;;50.10;;
11835;SDS011;5977;51.972;7.640;2022-10-16T12:00:15;142.73;;;49.77;;
11835;SDS011;5977;51.972;7.640;2022-10-16T12:02:52;142.37;;;49.83;;
11835;SDS011;5977;51.972;7.640;2022-10-16T12:05:29;142.40;;;49.90;;
11835;SDS011;5977;51.972;7.640;2022-10-16T12:08:10;142.97;;;50.17;;
11835;SDS011;5977;51.972;7.640;2022-10-16T12:10:41;141.97;;;49.30;;
11835;SDS011;5977;51.972;7.640;2022-10-16T12:13:29;142.13;;;49.50;;
11835;SDS011;5977;51.972;7.640;2022-10-16T12:16:05;142.17;;;49.47;;
11835;SDS011;5977;51.972;7.640;2022-10-16T12:18:34;141.73;;;49.33;;
11835;SDS011;5977;51.972;7.640;2022-10-16T12:21:04;141.90;;;49.63;;
11835;SDS011;5977;51.972;7.640;2022-10-16T12:23:33;141.80;;;49.57;;
11835;SDS011;5977;51.972;7.640;2022-10-16T12:26:05;142.47;;;49.67;;
11835;SDS011;5977;51.972;7.640;2022-10-16T12:28:33;143.10;;;50.13;;
11835;SDS011;5977;51.972;7.640;2022-10-16T12:31:02;142.90;;;50.10;;
11835;SDS011;5977;51.972;7.640;2022-10-16T12:33:32;141.87;;;49.47;;
11835;SDS011;5977;51.972;7.640;2022-10-16T12:36:05;142.93;;;50.10;;
11835;SDS011;5977;51.972;7.640;2022-10-16T12:38:45;142.40;;;49.67;;
11835;SDS011;5977;51.972;7.640;2022-10-16T12:41:23;142.40;;;49.70;;
11835;SDS011;5977;51.972;7.640;2022-10-16T12:43:53;142.97;;;49.97;;
11835;SDS011;5977;51.972;7.640;2022-10-16T12:46:22;142.57;;;49.67;;
11835;SDS011;5977;51.972;7.640;2022-10-16T12:49:05;142.20;;;49.60;;
11835;SDS011;5977;51.972;7.640;2022-10-16T12:51:49;142.80;;;49.93;;
11835;SDS011;5977;51.972;7.640;2022-10-16T12:54:18;142.03;;;49.50;;
11835;SDS011;5977;51.972;7.640;2022-10-16T12:56:52;142.87;;;49.93;;
11835;SDS011;5977;51.972;7.640;2022-10-16T12:59:38;142.97;;;49.87;;
11835;SDS011;5977;51.972;7.640;2022-10-16T13:02:26;142.13;;;49.60;;
11835;SDS011;5977;51.972;7.640;2022-10-16T13:05:14;142.80;;;50.10;;
11835;SDS011;5977;51.972;7.640;2022-10-16T13:07:59;142.37;;;49.37;;
11835;SDS011;5977;51.972;7.640;2022-10-16T13:10:45;141.97;;;49.33;;
11835;SDS011;5977;51.972;7.640;2022-10-16T13:13:31;143.43;;;50.80;;
11835;SDS011;5977;51.972;7.640;2022-10-16T13:16:13;143.00;;;50.13;;
11835;SDS011;5977;51.972;7.640;2022-10-16T13:18:51;142.57;;;49.57;;
11835;SDS011;5977;51.972;7.640;2022-10-16T13:21:33;144.07;;;50.10;;
11835;SDS011;5977;51.972;7.640;2022-10-16T13:24:13;143.30;;;49.77;;
11835;SDS011;5977;51.972;7.640;2022-10-16T13:26:49;142.63;;;49.63;;
11835;SDS011;5977;51.972;7.640;2022-10-16T13:29:22;142.23;;;49.60;;
11835;SDS011;5977;51.972;7.640;2022-10-16T13:31:50;142.70;;;50.03;;
11835;SDS011;5977;51.972;7.640;2022-10-16T13:34:19;142.60;;;49.80;;
11835;SDS011;5977;51.972;7.640;2022-10-16T13:36:50;142.13;;;49.50;;
11835;SDS011;5977;51.972;7.640;2022-10-16T13:39:22;142.47;;;49.97;;
11835;SDS011;5977;51.972;7.640;2022-10-16T13:41:58;141.83;;;49.33;;
11835;SDS011;5977;51.972;7.640;2022-10-16T13:44:35;141.73;;;49.30;;
11835;SDS011;5977;51.972;7.640;2022-10-16T13:47:10;142.07;;;49.37;;
11835;SDS011;5977;51.972;7.640;2022-10-16T13:49:43;142.33;;;49.77;;
11835;SDS011;5977;51.972;7.640;2022-10-16T13:52:15;141.80;;;49.43;;
11835;SDS011;5977;51.972;7.640;2022-10-16T13:54:46;142.33;;;49.80;;
11835;SDS011;5977;51.972;7.640;2022-10-16T13:57:15;142.50;;;49.97;;
11835;SDS011;5977;51.972;7.640;2022-10-16T13:59:58;142.60;;;50.03;;
11835;SDS011;5977;51.972;7.640;2022-10-16T14:02:26;142.10;;;49.77;;
11835;SDS011;5977;51.972;7.640;2022-10-16T14:04:58;142.13;;;49.50;;
11835;SDS011;5977;51.972;7.640;2022-10-16T14:07:27;141.30;;;49.17;;
11835;SDS011;5977;51.972;7.640;2022-10-16T14:09:59;142.23;;;49.60;;
11835;SDS011;5977;51.972;7.640;2022-10-16T14:12:30;142.40;;;49.67;;
11835;SDS011;5977;51.972;7.640;2022-10-16T14:14:59;141.13;;;49.07;;
11835;SDS011;5977;51.972;7.640;2022-10-16T14:17:28;141.87;;;49.43;;
11835;SDS011;5977;51.972;7.640;2022-10-16T14:19:58;141.97;;;49.37;;
11835;SDS011;5977;51.972;7.640;2022-10-16T14:22:32;141.77;;;49.43;;
11835;SDS011;5977;51.972;7.640;2022-10-16T14:25:13;141.73;;;49.27;;
11835;SDS011;5977;51.972;7.640;2022-10-16T14:27:59;141.97;;;49.23;;
11835;SDS011;5977;51.972;7.640;2022-10-16T14:30:28;141.50;;;49.13;;
11835;SDS011;5977;51.972;7.640;2022-10-16T14:33:18;141.53;;;49.13;;
11835;SDS011;5977;51.972;7.640;2022-10-16T14:36:40;141.83;;;49.53;;
11835;SDS011;5977;51.972;7.640;2022-10-16T14:49:00;141.27;;;49.33;;
11835;SDS011;5977;51.972;7.640;2022-10-16T14:52:58;141.43;;;49.13;;
11835;SDS011;5977;51.972;7.640;2022-10-16T14:55:26;141.93;;;49.83;;
11835;SDS011;5977;51.972;7.640;2022-10-16T14:57:54;141.83;;;49.57;;
11835;SDS011;5977;51.972;7.640;2022-10-16T15:00:27;141.50;;;49.47;;
11835;SDS011;5977;51.972;7.640;2022-10-16T15:02:55;141.13;;;49.00;;
11835;SDS011;5977;51.972;7.640;2022-10-16T15:05:24;141.50;;;49.40;;
11835;SDS011;5977;51.972;7.640;2022-10-16T15:07:54;141.20;;;49.10;;
11835;SDS011;5977;51.972;7.640;2022-10-16T15:10:22;141.80;;;49.60;;
11835;SDS011;5977;51.972;7.640;2022-10-16T15:12:51;141.83;;;49.53;;